Airfield :
LOGIN :

Register | Disclaimer

   EN    FR    IT 

 










Legend :    VFR   Marginal VFR   IFR   Intensive IFR   Very Intensive IFR
Visi :
Ceiling :
>= 8 km
>= 3000ft
5 to 8 km
1000 to 3000 ft
1500m to 5 km
500 to 1000 ft
800 to 1500m
200 to 500 ft
< 800m
< 200 ft
Symbols :   Thunderstorms  Fog  Heavy snow  Heavy precipitations  Wind > 20 kt
SIGMETs :     Misc.  Thunderstorms  Icing  Turbulence  Mountain Waves  Volcanic Ashes







- Airport Elevation : 648 ft
- IATA code : INI


LYNI - Nis Constantine

CURRENT METAR :
  • 241730Z 32018G29KT 9999 RA SCT013 BKN027 09/07 Q1026 NOSIG

EXPIRED METARs :
  • 241700Z 32011KT 280V350 9999 -RA SCT020 BKN027 11/07 Q1025 TEMPO FM1730 4000 RA BKN013 OVC060
  • 241630Z 31012KT 280V340 9999 -RA FEW020 BKN027 11/07 Q1025 NOSIG
  • 241600Z 31016KT 9999 FEW020 BKN027 12/07 Q1024 NOSIG
  • 241530Z 31012KT 280V350 9999 -RA FEW017 BKN027 12/07 Q1024 NOSIG
  • 241500Z 32014KT 9999 -RA SCT017 BKN030 12/07 Q1024 NOSIG

TAF TAF LYNI
Valid from the 24 at 18:00 until the 25 at 18:00 UTC


241700Z 2418/2518 34015KT 9999 FEW017 SCT027 TX16/2513Z TN05/2504Z
TEMPO 2418/2420 4000 RA BKN013 OVC060
BECMG 2420/2422 28007KT
BECMG 2507/2509 32018G28KT
No reported NOTAMs for that airfield.



MET'MAP, your aeronautical weather chart ! - Copyright ORBIFLY December 2007 - Disclaimer

ORBIFLY MET'MAP TEAM :

Programming & Development : Alexandra Zaïnal
Concept & Development : Baudouin d'Aumeries
Co-Development & Prog : Marc-Olivier Méhu
Technical & hardware support : Manuel Goepfert

Contact : metmap@orbifly.com




SOURCES & CREDITS :

   NOAA